Time,TemperatureF,DewpointF,PressureIn,WindDirection,WindDirectionDegrees,WindSpeedMPH,WindSpeedGustMPH,Humidity,HourlyPrecipIn,Conditions,Clouds,dailyrainin,SolarRadiationWatts/m^2,SoftwareType,DateUTC
2013-01-13 00:10:00,43.5,41.6,30.07,WSW,258,0.0,0.0,93,0.00,,,0.00,0,Wunderground v.1.15,2013-01-13 05:10:00,
2013-01-13 00:20:00,43.3,41.4,30.07,WSW,258,0.0,0.0,93,0.00,,,0.00,0,Wunderground v.1.15,2013-01-13 05:20:00,
2013-01-13 00:30:00,43.3,41.4,30.06,WSW,258,0.0,0.0,93,0.00,,,0.00,0,Wunderground v.1.15,2013-01-13 05:30:00,
2013-01-13 00:40:00,43.2,41.3,30.06,WSW,258,0.0,0.0,93,0.00,,,0.00,0,Wunderground v.1.15,2013-01-13 05:40:00,
2013-01-13 00:50:00,43.3,41.4,30.06,WSW,258,0.0,0.0,93,0.00,,,0.00,0,Wunderground v.1.15,2013-01-13 05:50:00,
2013-01-13 01:00:00,43.2,41.6,30.06,WSW,258,0.0,0.0,94,0.00,,,0.00,0,Wunderground v.1.15,2013-01-13 06:00:00,
2013-01-13 01:09:00,42.9,41.0,30.06,WSW,258,0.0,0.0,93,0.00,,,0.00,0,Wunderground v.1.15,2013-01-13 06:09:00,
2013-01-13 01:20:00,42.6,40.7,30.07,WSW,258,0.0,0.0,93,0.00,,,0.00,0,Wunderground v.1.15,2013-01-13 06:20:00,
2013-01-13 01:30:00,42.3,40.4,30.07,WSW,258,0.0,0.0,93,0.00,,,0.00,0,Wunderground v.1.15,2013-01-13 06:30:00,
2013-01-13 01:40:00,42.0,40.1,30.07,WSW,258,0.0,0.0,93,0.00,,,0.00,0,Wunderground v.1.15,2013-01-13 06:40:00,
2013-01-13 01:50:00,41.6,39.7,30.07,WSW,258,0.0,0.0,93,0.00,,,0.00,0,Wunderground v.1.15,2013-01-13 06:50:00,
2013-01-13 02:00:00,41.5,39.9,30.07,WSW,258,0.0,0.0,94,0.00,,,0.00,0,Wunderground v.1.15,2013-01-13 07:00:00,
2013-01-13 02:10:00,41.5,39.9,30.07,WSW,258,0.0,0.0,94,0.00,,,0.00,0,Wunderground v.1.15,2013-01-13 07:10:00,
2013-01-13 02:20:00,41.5,39.9,30.06,WSW,257,0.0,0.0,94,0.00,,,0.00,0,Wunderground v.1.15,2013-01-13 07:20:00,
2013-01-13 02:30:00,42.1,40.8,30.07,SE,134,0.0,0.0,95,0.00,,,0.00,0,Wunderground v.1.15,2013-01-13 07:30:00,
2013-01-13 02:40:00,42.8,41.5,30.06,SE,137,0.0,0.0,95,0.00,,,0.00,0,Wunderground v.1.15,2013-01-13 07:40:00,
2013-01-13 02:50:00,43.6,42.3,30.06,East,101,1.0,2.0,95,0.00,,,0.00,0,Wunderground v.1.15,2013-01-13 07:50:00,
2013-01-13 03:00:00,44.0,42.7,30.05,SE,124,1.0,1.0,95,0.00,,,0.00,0,Wunderground v.1.15,2013-01-13 08:00:00,
2013-01-13 03:10:00,44.1,42.5,30.04,SE,134,1.0,1.0,94,0.00,,,0.00,0,Wunderground v.1.15,2013-01-13 08:10:00,
2013-01-13 03:20:00,44.1,42.8,30.03,SE,134,0.0,0.0,95,0.00,,,0.00,0,Wunderground v.1.15,2013-01-13 08:20:00,
2013-01-13 03:30:00,44.1,42.5,30.04,SE,134,0.0,0.0,94,0.00,,,0.00,0,Wunderground v.1.15,2013-01-13 08:30:00,
2013-01-13 03:40:00,44.0,42.4,30.03,SE,134,0.0,0.0,94,0.00,,,0.00,0,Wunderground v.1.15,2013-01-13 08:40:00,
2013-01-13 03:50:00,43.8,42.2,30.03,SE,134,0.0,0.0,94,0.00,,,0.00,0,Wunderground v.1.15,2013-01-13 08:50:00,
2013-01-13 04:00:00,43.5,41.9,30.02,SE,134,0.0,0.0,94,0.00,,,0.00,0,Wunderground v.1.15,2013-01-13 09:00:00,
2013-01-13 04:10:00,43.2,41.6,30.02,SE,134,0.0,0.0,94,0.00,,,0.00,0,Wunderground v.1.15,2013-01-13 09:10:00,
2013-01-13 04:20:00,42.9,41.3,30.01,SE,134,0.0,0.0,94,0.00,,,0.00,0,Wunderground v.1.15,2013-01-13 09:20:00,
2013-01-13 04:30:00,42.7,41.1,30.01,SE,134,0.0,0.0,94,0.00,,,0.00,0,Wunderground v.1.15,2013-01-13 09:30:00,
2013-01-13 04:40:00,42.3,40.7,30.00,SE,134,0.0,0.0,94,0.00,,,0.00,0,Wunderground v.1.15,2013-01-13 09:40:00,
2013-01-13 04:50:00,42.1,40.8,30.00,SE,134,0.0,0.0,95,0.00,,,0.00,0,Wunderground v.1.15,2013-01-13 09:50:00,
2013-01-13 05:00:00,42.1,40.8,30.00,SE,134,0.0,0.0,95,0.00,,,0.00,0,Wunderground v.1.15,2013-01-13 10:00:00,
2013-01-13 05:10:00,42.2,40.9,29.99,SE,134,0.0,0.0,95,0.00,,,0.00,0,Wunderground v.1.15,2013-01-13 10:10:00,
2013-01-13 05:20:00,42.4,41.1,30.00,SE,134,0.0,0.0,95,0.00,,,0.00,0,Wunderground v.1.15,2013-01-13 10:20:00,
2013-01-13 05:30:00,42.6,41.3,30.00,SE,134,0.0,0.0,95,0.00,,,0.00,0,Wunderground v.1.15,2013-01-13 10:30:00,
2013-01-13 05:40:00,42.8,41.5,30.01,SE,134,0.0,0.0,95,0.00,,,0.00,0,Wunderground v.1.15,2013-01-13 10:40:00,
2013-01-13 05:50:00,42.9,41.6,30.00,WSW,238,0.0,0.0,95,0.00,,,0.00,0,Wunderground v.1.15,2013-01-13 10:50:00,
2013-01-13 06:00:00,43.0,41.7,30.00,WSW,238,0.0,0.0,95,0.00,,,0.00,0,Wunderground v.1.15,2013-01-13 11:00:00,
2013-01-13 06:10:00,43.1,41.8,30.00,WSW,238,0.0,0.0,95,0.00,,,0.00,0,Wunderground v.1.15,2013-01-13 11:10:00,
2013-01-13 06:20:00,43.2,41.9,30.00,WSW,238,0.0,0.0,95,0.00,,,0.00,0,Wunderground v.1.15,2013-01-13 11:20:00,
2013-01-13 06:30:00,43.3,42.0,30.00,WSW,238,0.0,0.0,95,0.00,,,0.00,0,Wunderground v.1.15,2013-01-13 11:30:00,
2013-01-13 06:40:00,43.3,42.0,30.00,WSW,238,0.0,0.0,95,0.00,,,0.00,0,Wunderground v.1.15,2013-01-13 11:40:00,
2013-01-13 06:50:00,43.3,42.0,30.00,WSW,238,0.0,0.0,95,0.00,,,0.00,0,Wunderground v.1.15,2013-01-13 11:50:00,
2013-01-13 07:00:00,43.3,42.0,30.00,WSW,238,0.0,0.0,95,0.00,,,0.00,0,Wunderground v.1.15,2013-01-13 12:00:00,
2013-01-13 07:10:00,43.4,42.1,30.00,WSW,238,0.0,0.0,95,0.00,,,0.00,0,Wunderground v.1.15,2013-01-13 12:10:00,
2013-01-13 07:20:00,43.5,42.2,30.00,WSW,238,0.0,0.0,95,0.00,,,0.00,0,Wunderground v.1.15,2013-01-13 12:20:00,
2013-01-13 07:30:00,43.6,42.3,30.01,WSW,238,0.0,0.0,95,0.00,,,0.00,0,Wunderground v.1.15,2013-01-13 12:30:00,
2013-01-13 07:40:00,43.7,42.4,30.02,WSW,238,0.0,0.0,95,0.00,,,0.00,5,Wunderground v.1.15,2013-01-13 12:40:00,
2013-01-13 07:50:00,43.8,42.5,30.02,WSW,238,0.0,0.0,95,0.00,,,0.00,7,Wunderground v.1.15,2013-01-13 12:50:00,
2013-01-13 08:00:00,44.0,42.7,30.02,WSW,238,0.0,0.0,95,0.00,,,0.00,7,Wunderground v.1.15,2013-01-13 13:00:00,
2013-01-13 08:10:00,44.1,43.0,30.02,WSW,238,0.0,0.0,96,0.00,,,0.00,21,Wunderground v.1.15,2013-01-13 13:10:00,
2013-01-13 08:20:00,44.4,43.3,30.02,WSW,238,0.0,0.0,96,0.00,,,0.00,32,Wunderground v.1.15,2013-01-13 13:20:00,
2013-01-13 08:30:00,44.7,43.6,30.03,WSW,238,0.0,0.0,96,0.00,,,0.00,53,Wunderground v.1.15,2013-01-13 13:30:00,
2013-01-13 08:40:00,45.2,44.1,30.05,West,265,0.0,0.0,96,0.00,,,0.00,69,Wunderground v.1.15,2013-01-13 13:40:00,
2013-01-13 08:50:00,45.9,44.8,30.04,West,265,0.0,0.0,96,0.00,,,0.00,151,Wunderground v.1.15,2013-01-13 13:50:00,
2013-01-13 09:00:00,47.6,46.5,30.04,East,101,2.0,2.0,96,0.00,,,0.00,144,Wunderground v.1.15,2013-01-13 14:00:00,
2013-01-13 09:10:00,48.9,47.8,30.05,ESE,113,2.0,2.0,96,0.00,,,0.00,207,Wunderground v.1.15,2013-01-13 14:10:00,
2013-01-13 09:20:00,50.5,49.4,30.05,SE,132,0.0,0.0,96,0.00,,,0.00,156,Wunderground v.1.15,2013-01-13 14:20:00,
2013-01-13 09:30:00,51.2,49.8,30.05,SSE,159,0.0,0.0,95,0.00,,,0.00,77,Wunderground v.1.15,2013-01-13 14:30:00,
2013-01-13 09:40:00,51.7,50.0,30.04,SE,146,0.0,1.0,94,0.00,,,0.00,165,Wunderground v.1.15,2013-01-13 14:40:00,
2013-01-13 09:50:00,52.1,50.4,30.05,SE,143,0.0,0.0,94,0.00,,,0.00,125,Wunderground v.1.15,2013-01-13 14:50:00,
2013-01-13 10:00:00,52.9,51.2,30.05,SSE,150,0.0,0.0,94,0.00,,,0.00,128,Wunderground v.1.15,2013-01-13 15:00:00,
2013-01-13 10:10:00,52.4,50.1,30.05,WSW,252,1.0,2.0,92,0.00,,,0.00,120,Wunderground v.1.15,2013-01-13 15:10:00,
2013-01-13 10:20:00,52.6,50.0,30.04,WSW,250,1.0,1.0,91,0.00,,,0.00,244,Wunderground v.1.15,2013-01-13 15:20:00,
2013-01-13 10:30:00,53.4,50.5,30.04,West,259,1.0,1.0,90,0.00,,,0.00,279,Wunderground v.1.15,2013-01-13 15:30:00,
2013-01-13 10:40:00,53.9,50.7,30.04,WSW,258,1.0,1.0,89,0.00,,,0.00,396,Wunderground v.1.15,2013-01-13 15:40:00,
2013-01-13 10:50:00,54.9,51.7,30.04,WNW,301,0.0,0.0,89,0.00,,,0.00,216,Wunderground v.1.15,2013-01-13 15:50:00,
2013-01-13 11:00:00,55.6,51.8,30.03,WNW,301,0.0,0.0,87,0.00,,,0.00,244,Wunderground v.1.15,2013-01-13 16:00:00,
2013-01-13 11:10:00,56.2,52.1,30.02,WNW,301,0.0,0.0,86,0.00,,,0.00,244,Wunderground v.1.15,2013-01-13 16:10:00,
2013-01-13 11:20:00,56.8,52.0,30.02,North,11,1.0,2.0,84,0.00,,,0.00,211,Wunderground v.1.15,2013-01-13 16:20:00,
2013-01-13 11:30:00,56.6,52.1,30.01,NNW,329,1.0,1.0,85,0.00,,,0.00,367,Wunderground v.1.15,2013-01-13 16:30:00,
2013-01-13 11:40:00,56.9,52.1,30.01,NNW,329,0.0,1.0,84,0.00,,,0.00,206,Wunderground v.1.15,2013-01-13 16:40:00,
2013-01-13 11:50:00,57.0,52.5,30.00,NNW,329,1.0,1.0,85,0.00,,,0.00,204,Wunderground v.1.15,2013-01-13 16:50:00,
2013-01-13 12:00:00,57.0,52.2,29.99,NNE,12,2.0,2.0,84,0.00,,,0.00,178,Wunderground v.1.15,2013-01-13 17:00:00,
2013-01-13 12:10:00,56.8,52.3,29.99,NNE,17,2.0,3.0,85,0.00,,,0.00,163,Wunderground v.1.15,2013-01-13 17:10:00,
2013-01-13 12:20:00,56.6,52.5,29.99,ENE,71,2.0,2.0,86,0.00,,,0.00,202,Wunderground v.1.15,2013-01-13 17:20:00,
2013-01-13 12:30:00,56.8,52.7,29.98,NE,55,2.0,2.0,86,0.00,,,0.00,192,Wunderground v.1.15,2013-01-13 17:30:00,
2013-01-13 12:40:00,56.6,52.5,29.98,ESE,103,1.0,1.0,86,0.00,,,0.00,230,Wunderground v.1.15,2013-01-13 17:40:00,
2013-01-13 12:50:00,57.3,53.1,29.98,NE,46,1.0,2.0,86,0.00,,,0.00,237,Wunderground v.1.15,2013-01-13 17:50:00,
2013-01-13 13:00:00,57.5,53.0,29.98,NE,55,1.0,1.0,85,0.00,,,0.00,207,Wunderground v.1.15,2013-01-13 18:00:00,
2013-01-13 13:10:00,57.4,52.6,29.97,East,83,1.0,1.0,84,0.00,,,0.00,171,Wunderground v.1.15,2013-01-13 18:10:00,
2013-01-13 13:20:00,57.2,53.0,29.96,ENE,71,2.0,2.0,86,0.00,,,0.00,188,Wunderground v.1.15,2013-01-13 18:20:00,
2013-01-13 13:30:00,57.4,53.2,29.96,East,92,1.0,2.0,86,0.00,,,0.00,178,Wunderground v.1.15,2013-01-13 18:30:00,
2013-01-13 13:40:00,57.4,53.2,29.96,ENE,74,1.0,1.0,86,0.00,,,0.00,162,Wunderground v.1.15,2013-01-13 18:40:00,
2013-01-13 13:50:00,57.0,52.9,29.96,SE,133,2.0,2.0,86,0.00,,,0.00,141,Wunderground v.1.15,2013-01-13 18:50:00,
2013-01-13 14:00:00,56.8,53.0,29.95,ESE,123,3.0,4.0,87,0.00,,,0.00,141,Wunderground v.1.15,2013-01-13 19:00:00,
2013-01-13 14:10:00,56.4,52.6,29.95,East,98,3.0,5.0,87,0.00,,,0.00,167,Wunderground v.1.15,2013-01-13 19:10:00,
2013-01-13 14:20:00,56.2,52.7,29.96,SE,145,3.0,3.0,88,0.00,,,0.00,167,Wunderground v.1.15,2013-01-13 19:20:00,
2013-01-13 14:30:00,56.4,52.9,29.95,ESE,114,3.0,3.0,88,0.00,,,0.00,146,Wunderground v.1.15,2013-01-13 19:30:00,
2013-01-13 14:40:00,56.2,52.7,29.96,ESE,108,4.0,4.0,88,0.00,,,0.00,116,Wunderground v.1.15,2013-01-13 19:40:00,
2013-01-13 14:50:00,56.3,53.1,29.96,ESE,121,2.0,2.0,89,0.00,,,0.00,144,Wunderground v.1.15,2013-01-13 19:50:00,
2013-01-13 15:00:00,56.2,53.0,29.96,East,98,3.0,3.0,89,0.00,,,0.00,128,Wunderground v.1.15,2013-01-13 20:00:00,
2013-01-13 15:10:00,56.3,53.1,29.96,ESE,109,2.0,3.0,89,0.00,,,0.00,135,Wunderground v.1.15,2013-01-13 20:10:00,
2013-01-13 15:20:00,56.6,53.4,29.96,SE,138,2.0,2.0,89,0.00,,,0.00,81,Wunderground v.1.15,2013-01-13 20:20:00,
2013-01-13 15:30:00,56.4,53.2,29.96,East,90,2.0,2.0,89,0.00,,,0.00,69,Wunderground v.1.15,2013-01-13 20:30:00,
2013-01-13 15:40:00,56.3,53.1,29.96,ESE,104,3.0,5.0,89,0.00,,,0.00,69,Wunderground v.1.15,2013-01-13 20:40:00,
2013-01-13 15:50:00,56.1,52.9,29.97,SE,140,4.0,4.0,89,0.00,,,0.00,56,Wunderground v.1.15,2013-01-13 20:50:00,
2013-01-13 16:00:00,56.0,52.8,29.97,ESE,122,4.0,4.0,89,0.00,,,0.00,49,Wunderground v.1.15,2013-01-13 21:00:00,
2013-01-13 16:10:00,55.8,52.6,29.97,ESE,111,3.0,3.0,89,0.00,,,0.00,37,Wunderground v.1.15,2013-01-13 21:10:00,
2013-01-13 16:20:00,55.7,52.8,29.97,SE,127,1.0,1.0,90,0.00,,,0.00,30,Wunderground v.1.15,2013-01-13 21:20:00,
2013-01-13 16:30:00,55.6,52.7,29.97,SE,127,0.0,0.0,90,0.00,,,0.00,26,Wunderground v.1.15,2013-01-13 21:30:00,
2013-01-13 16:40:00,55.5,52.6,29.97,SE,136,1.0,2.0,90,0.00,,,0.00,23,Wunderground v.1.15,2013-01-13 21:40:00,
2013-01-13 16:50:00,55.4,52.5,29.97,ESE,123,1.0,1.0,90,0.00,,,0.00,12,Wunderground v.1.15,2013-01-13 21:50:00,
2013-01-13 17:00:00,55.2,52.3,29.97,SE,133,0.0,0.0,90,0.00,,,0.00,0,Wunderground v.1.15,2013-01-13 22:00:00,
2013-01-13 17:10:00,55.1,52.5,29.97,SE,133,0.0,0.0,91,0.00,,,0.00,0,Wunderground v.1.15,2013-01-13 22:10:00,
2013-01-13 17:20:00,54.9,52.3,29.98,SE,133,0.0,0.0,91,0.00,,,0.00,0,Wunderground v.1.15,2013-01-13 22:20:00,
2013-01-13 17:30:00,54.7,52.1,29.97,SE,133,0.0,0.0,91,0.00,,,0.00,0,Wunderground v.1.15,2013-01-13 22:30:00,
2013-01-13 17:40:00,54.5,51.9,29.97,SE,133,0.0,0.0,91,0.00,,,0.00,0,Wunderground v.1.15,2013-01-13 22:40:00,
2013-01-13 17:50:00,54.2,51.6,29.97,SE,133,0.0,0.0,91,0.00,,,0.00,0,Wunderground v.1.15,2013-01-13 22:50:00,
2013-01-13 18:00:00,53.9,51.3,29.97,SE,133,0.0,0.0,91,0.00,,,0.00,0,Wunderground v.1.15,2013-01-13 23:00:00,
2013-01-13 18:10:00,53.6,51.0,29.96,SE,133,0.0,0.0,91,0.00,,,0.00,0,Wunderground v.1.15,2013-01-13 23:10:00,
2013-01-13 18:20:00,53.3,50.7,29.96,SE,133,0.0,0.0,91,0.00,,,0.00,0,Wunderground v.1.15,2013-01-13 23:20:00,
2013-01-13 18:30:00,53.2,50.6,29.96,SE,133,0.0,0.0,91,0.00,,,0.00,0,Wunderground v.1.15,2013-01-13 23:30:00,
2013-01-13 18:40:00,53.0,50.4,29.95,SE,133,0.0,0.0,91,0.00,,,0.00,0,Wunderground v.1.15,2013-01-13 23:40:00,
2013-01-13 18:50:00,53.1,50.8,29.94,SE,132,0.0,0.0,92,0.00,,,0.00,0,Wunderground v.1.15,2013-01-13 23:50:00,
2013-01-13 19:00:00,53.3,51.0,29.94,SE,132,0.0,0.0,92,0.00,,,0.00,0,Wunderground v.1.15,2013-01-14 00:00:00,
2013-01-13 19:10:00,53.3,51.0,29.95,WSW,251,0.0,0.0,92,0.00,,,0.00,0,Wunderground v.1.15,2013-01-14 00:10:00,
2013-01-13 19:20:00,53.1,50.8,29.95,WSW,251,0.0,0.0,92,0.00,,,0.00,0,Wunderground v.1.15,2013-01-14 00:20:00,
2013-01-13 19:30:00,52.9,50.6,29.94,WSW,251,0.0,0.0,92,0.00,,,0.00,0,Wunderground v.1.15,2013-01-14 00:30:00,
2013-01-13 19:40:00,52.7,50.4,29.94,WSW,251,0.0,0.0,92,0.00,,,0.00,0,Wunderground v.1.15,2013-01-14 00:40:00,
2013-01-13 19:50:00,52.4,50.1,29.94,WSW,251,0.0,0.0,92,0.00,,,0.00,0,Wunderground v.1.15,2013-01-14 00:50:00,
2013-01-13 20:00:00,52.2,49.9,29.94,WSW,251,0.0,0.0,92,0.00,,,0.00,0,Wunderground v.1.15,2013-01-14 01:00:00,
2013-01-13 20:10:00,51.9,49.6,29.93,WSW,251,0.0,0.0,92,0.00,,,0.00,0,Wunderground v.1.15,2013-01-14 01:10:00,
2013-01-13 20:20:00,51.7,49.5,29.94,WSW,251,0.0,0.0,92,0.00,,,0.00,0,Wunderground v.1.15,2013-01-14 01:20:00,
2013-01-13 20:30:00,51.5,49.5,29.93,WSW,251,0.0,0.0,93,0.00,,,0.00,0,Wunderground v.1.15,2013-01-14 01:30:00,
2013-01-13 20:40:00,51.4,49.4,29.94,WSW,251,0.0,0.0,93,0.00,,,0.00,0,Wunderground v.1.15,2013-01-14 01:40:00,
2013-01-13 20:50:00,51.3,49.3,29.93,WSW,251,0.0,0.0,93,0.00,,,0.00,0,Wunderground v.1.15,2013-01-14 01:50:00,
2013-01-13 21:00:00,51.1,49.1,29.92,South,175,0.0,0.0,93,0.00,,,0.00,0,Wunderground v.1.15,2013-01-14 02:00:00,
2013-01-13 21:10:00,51.1,49.1,29.93,South,175,0.0,0.0,93,0.00,,,0.00,0,Wunderground v.1.15,2013-01-14 02:10:00,
2013-01-13 21:20:00,51.2,49.2,29.92,South,175,0.0,0.0,93,0.00,,,0.00,0,Wunderground v.1.15,2013-01-14 02:20:00,
2013-01-13 21:30:00,51.3,49.6,29.93,South,175,0.0,0.0,94,0.00,,,0.00,0,Wunderground v.1.15,2013-01-14 02:30:00,
2013-01-13 21:40:00,51.3,49.6,29.92,South,175,0.0,0.0,94,0.00,,,0.00,0,Wunderground v.1.15,2013-01-14 02:40:00,
2013-01-13 21:50:00,51.4,49.7,29.92,South,175,0.0,0.0,94,0.00,,,0.00,0,Wunderground v.1.15,2013-01-14 02:50:00,
2013-01-13 22:00:00,51.4,49.7,29.92,South,175,0.0,0.0,94,0.00,,,0.00,0,Wunderground v.1.15,2013-01-14 03:00:00,
2013-01-13 22:10:00,51.2,49.5,29.93,South,175,0.0,0.0,94,0.00,,,0.00,0,Wunderground v.1.15,2013-01-14 03:10:00,
2013-01-13 22:20:00,51.1,49.4,29.92,South,175,0.0,0.0,94,0.00,,,0.00,0,Wunderground v.1.15,2013-01-14 03:20:00,
2013-01-13 22:30:00,51.0,49.3,29.93,South,175,0.0,0.0,94,0.00,,,0.00,0,Wunderground v.1.15,2013-01-14 03:30:00,
2013-01-13 22:40:00,50.8,49.1,29.92,South,175,0.0,0.0,94,0.00,,,0.00,0,Wunderground v.1.15,2013-01-14 03:40:00,
2013-01-13 22:50:00,50.7,49.0,29.92,South,175,0.0,0.0,94,0.00,,,0.00,0,Wunderground v.1.15,2013-01-14 03:50:00,
2013-01-13 23:00:00,50.5,48.8,29.92,South,175,0.0,0.0,94,0.00,,,0.00,0,Wunderground v.1.15,2013-01-14 04:00:00,
2013-01-13 23:10:00,50.5,48.8,29.92,South,175,0.0,0.0,94,0.00,,,0.00,0,Wunderground v.1.15,2013-01-14 04:10:00,
2013-01-13 23:20:00,50.3,48.6,29.91,South,175,0.0,0.0,94,0.00,,,0.00,0,Wunderground v.1.15,2013-01-14 04:20:00,
2013-01-13 23:30:00,50.3,48.6,29.92,South,176,0.0,0.0,94,0.00,,,0.00,0,Wunderground v.1.15,2013-01-14 04:30:00,
2013-01-13 23:40:00,50.3,48.6,29.92,South,176,0.0,0.0,94,0.00,,,0.00,0,Wunderground v.1.15,2013-01-14 04:40:00,
2013-01-13 23:50:00,50.3,48.6,29.92,South,176,0.0,0.0,94,0.00,,,0.00,0,Wunderground v.1.15,2013-01-14 04:50:00,